createdAt,value
2023-02-04T00:00:52.020Z,93883.00
2023-02-04T00:04:59.408Z,93879.00
2023-02-04T00:09:02.741Z,93900.00
2023-02-04T00:13:06.461Z,93919.00
2023-02-04T00:17:13.042Z,93839.00
2023-02-04T00:21:18.019Z,93891.00
2023-02-04T00:25:46.778Z,93878.00
2023-02-04T00:29:50.144Z,93852.00
2023-02-04T00:33:57.854Z,93825.00
2023-02-04T00:38:02.703Z,93872.00
2023-02-04T00:42:07.529Z,93847.00
2023-02-04T00:46:12.844Z,93864.00
2023-02-04T00:50:19.573Z,93862.00
2023-02-04T00:54:24.619Z,93862.00
2023-02-04T00:58:54.634Z,93880.00
2023-02-04T01:02:58.344Z,93908.00
2023-02-04T01:07:04.129Z,93884.00
2023-02-04T01:11:09.087Z,93886.00
2023-02-04T01:21:15.564Z,93899.00
2023-02-04T01:26:28.639Z,93893.00
2023-02-04T01:30:33.872Z,93885.00
2023-02-04T01:34:42.038Z,93885.00
2023-02-04T01:38:47.792Z,93885.00
2023-02-04T01:42:51.602Z,93883.00
2023-02-04T01:47:12.177Z,93894.00
2023-02-04T01:51:18.518Z,93899.00
2023-02-04T01:55:38.258Z,93880.00
2023-02-04T01:59:45.135Z,93898.00
2023-02-04T02:03:50.033Z,93922.00
2023-02-04T02:07:56.393Z,93908.00
2023-02-04T02:12:40.285Z,93893.00
2023-02-04T02:16:44.933Z,93887.00
2023-02-04T02:20:50.547Z,93890.00
2023-02-04T02:25:48.479Z,93903.00
2023-02-04T02:29:53.652Z,93894.00
2023-02-04T02:39:34.323Z,93895.00
2023-02-04T02:43:39.198Z,93873.00
2023-02-04T02:47:46.770Z,93887.00
2023-02-04T02:51:50.819Z,93908.00
2023-02-04T02:56:05.577Z,93869.00
2023-02-04T03:05:02.021Z,93899.00
2023-02-04T03:09:08.609Z,93919.00
2023-02-04T03:13:28.496Z,93928.00
2023-02-04T03:17:34.431Z,93941.00
2023-02-04T03:21:39.542Z,93921.00
2023-02-04T03:25:49.131Z,93932.00
2023-02-04T03:29:53.984Z,93928.00
2023-02-04T03:34:22.612Z,93960.00
2023-02-04T03:38:27.756Z,93969.00
2023-02-04T03:42:31.309Z,94013.00
2023-02-04T03:46:34.879Z,94015.00
2023-02-04T03:50:39.692Z,94039.00
2023-02-04T03:54:44.582Z,94074.00
2023-02-04T03:58:48.328Z,94073.00
2023-02-04T04:02:51.874Z,94128.00
2023-02-04T04:06:59.978Z,94135.00
2023-02-04T04:11:05.338Z,94111.00
2023-02-04T04:15:09.823Z,94198.00
2023-02-04T04:19:13.406Z,94164.00
2023-02-04T04:23:22.071Z,94189.00
2023-02-04T04:27:27.329Z,94225.00
2023-02-04T04:31:31.002Z,94252.00
2023-02-04T04:35:34.888Z,94264.00
2023-02-04T04:39:38.609Z,94340.00
2023-02-04T04:43:44.769Z,94298.00
2023-02-04T04:47:48.565Z,94301.00
2023-02-04T04:51:54.251Z,94364.00
2023-02-04T04:55:57.726Z,94291.00
2023-02-04T05:00:02.957Z,94356.00
2023-02-04T05:04:06.670Z,94291.00
2023-02-04T05:08:14.229Z,94349.00
2023-02-04T05:12:21.222Z,94352.00
2023-02-04T05:16:26.146Z,94349.00
2023-02-04T05:20:30.431Z,94389.00
2023-02-04T05:24:52.814Z,94411.00
2023-02-04T05:28:56.414Z,94403.00
2023-02-04T05:33:03.686Z,94433.00
2023-02-04T05:37:07.132Z,94413.00
2023-02-04T05:41:23.976Z,94457.00
2023-02-04T05:45:27.465Z,94419.00
2023-02-04T05:49:46.909Z,94471.00
2023-02-04T05:53:50.405Z,94483.00
2023-02-04T05:58:06.138Z,94477.00
2023-02-04T06:02:09.679Z,94495.00
2023-02-04T06:06:14.566Z,94499.00
2023-02-04T06:10:19.004Z,94551.00
2023-02-04T06:14:22.375Z,94529.00
2023-02-04T06:18:26.096Z,94572.00
2023-02-04T06:22:31.192Z,94550.00
2023-02-04T06:26:35.772Z,94590.00
2023-02-04T06:30:39.395Z,94591.00
2023-02-04T06:34:42.781Z,94622.00
2023-02-04T06:39:02.107Z,94652.00
2023-02-04T06:43:05.593Z,94629.00
2023-02-04T06:47:27.653Z,94690.00
2023-02-04T06:51:31.058Z,94637.00
2023-02-04T06:55:48.713Z,94716.00
2023-02-04T06:59:52.311Z,94734.00
2023-02-04T07:04:12.206Z,94723.00
2023-02-04T07:08:36.415Z,94759.00
2023-02-04T07:12:41.926Z,94746.00
2023-02-04T07:16:46.654Z,94749.00
2023-02-04T07:20:54.824Z,94815.00
2023-02-04T07:24:58.392Z,94794.00
2023-02-04T07:29:03.351Z,94796.00
2023-02-04T07:33:06.852Z,94827.00
2023-02-04T07:37:10.216Z,94846.00
2023-02-04T07:41:16.981Z,94884.00
2023-02-04T07:45:22.349Z,94849.00
2023-02-04T07:49:25.845Z,94880.00
2023-02-04T07:53:29.270Z,94902.00
2023-02-04T07:57:34.242Z,94891.00
2023-02-04T08:01:39.282Z,94912.00
2023-02-04T08:06:33.954Z,94940.00
2023-02-04T08:10:37.497Z,94962.00
2023-02-04T08:20:42.131Z,94969.00
2023-02-04T08:25:00.536Z,94985.00
2023-02-04T08:29:04.139Z,94983.00
2023-02-04T08:33:33.171Z,94991.00
2023-02-04T08:37:38.020Z,95003.00
2023-02-04T08:42:31.006Z,95011.00
2023-02-04T08:46:35.086Z,95019.00
2023-02-04T08:51:32.137Z,95049.00
2023-02-04T08:55:37.171Z,95039.00
2023-02-04T09:00:32.646Z,95048.00
2023-02-04T09:04:36.315Z,95062.00
2023-02-04T09:08:43.819Z,95063.00
2023-02-04T09:12:48.627Z,95070.00
2023-02-04T09:16:53.183Z,95078.00
2023-02-04T09:21:00.998Z,95078.00
2023-02-04T09:25:04.814Z,95115.00
2023-02-04T09:30:21.784Z,95108.00
2023-02-04T09:34:26.674Z,95102.00
2023-02-04T09:38:30.303Z,95126.00
2023-02-04T09:42:40.987Z,95105.00
2023-02-04T09:46:48.356Z,95119.00
2023-02-04T09:51:02.134Z,95135.00
2023-02-04T09:55:13.115Z,95145.00
2023-02-04T09:59:18.542Z,95168.00
2023-02-04T10:03:23.812Z,95155.00
2023-02-04T10:07:30.098Z,95187.00
2023-02-04T10:11:39.381Z,95188.00
2023-02-04T10:15:43.396Z,95168.00
2023-02-04T10:20:38.760Z,95203.00
2023-02-04T10:24:43.728Z,95216.00
2023-02-04T10:29:37.207Z,95220.00
2023-02-04T10:33:40.770Z,95208.00
2023-02-04T10:37:44.349Z,95201.00
2023-02-04T10:41:59.427Z,95229.00
2023-02-04T10:46:05.051Z,95203.00
2023-02-04T10:50:30.786Z,95205.00
2023-02-04T10:54:39.028Z,95232.00
2023-02-04T10:58:46.532Z,95239.00
2023-02-04T11:07:17.109Z,95236.00
2023-02-04T11:11:24.286Z,95223.00
2023-02-04T11:15:44.831Z,95204.00
2023-02-04T11:19:54.151Z,95229.00
2023-02-04T11:24:08.989Z,95237.00
2023-02-04T11:28:16.625Z,95237.00
2023-02-04T11:32:40.318Z,95214.00
2023-02-04T11:37:09.378Z,95225.00
2023-02-04T11:41:18.091Z,95201.00
2023-02-04T11:45:32.380Z,95181.00
2023-02-04T11:55:08.730Z,95208.00
2023-02-04T12:05:42.554Z,95228.00
2023-02-04T12:09:49.914Z,95234.00
2023-02-04T12:14:07.525Z,95219.00
2023-02-04T12:18:14.998Z,95210.00
2023-02-04T12:22:18.495Z,95220.00
2023-02-04T12:26:25.824Z,95238.00
2023-02-04T12:30:30.705Z,95235.00
2023-02-04T12:35:00.669Z,95231.00
2023-02-04T12:39:05.344Z,95253.00
2023-02-04T12:43:08.926Z,95250.00
2023-02-04T12:47:14.888Z,95255.00
2023-02-04T12:51:18.243Z,95263.00
2023-02-04T12:55:31.261Z,95267.00
2023-02-04T12:59:36.030Z,95262.00
2023-02-04T13:03:41.427Z,95256.00
2023-02-04T13:07:44.963Z,95218.00
2023-02-04T13:12:08.197Z,95258.00
2023-02-04T13:16:12.687Z,95271.00
2023-02-04T13:20:17.741Z,95275.00
2023-02-04T13:24:22.452Z,95272.00
2023-02-04T13:28:28.050Z,95294.00
2023-02-04T13:33:28.474Z,95296.00
2023-02-04T13:37:33.444Z,95301.00
2023-02-04T13:41:38.021Z,95319.00
2023-02-04T13:45:47.611Z,95285.00
2023-02-04T13:49:51.155Z,95299.00
2023-02-04T13:54:02.246Z,95300.00
2023-02-04T13:58:05.686Z,95305.00
2023-02-04T14:02:10.687Z,95287.00
2023-02-04T14:06:21.826Z,95312.00
2023-02-04T14:10:27.236Z,95304.00
2023-02-04T14:14:30.738Z,95325.00
2023-02-04T14:18:34.185Z,95308.00
2023-02-04T14:22:39.713Z,95353.00
2023-02-04T14:26:44.509Z,95359.00
2023-02-04T14:30:48.513Z,95349.00
2023-02-04T14:34:52.144Z,95352.00
2023-02-04T14:39:21.352Z,95397.00
2023-02-04T14:43:27.942Z,95348.00
2023-02-04T14:47:31.379Z,95384.00
2023-02-04T14:51:34.809Z,95346.00
2023-02-04T14:56:30.084Z,95384.00
2023-02-04T15:00:35.102Z,95369.00
2023-02-04T15:05:04.840Z,95370.00
2023-02-04T15:09:08.223Z,95372.00
2023-02-04T15:13:12.638Z,95392.00
2023-02-04T15:17:18.944Z,95401.00
2023-02-04T15:21:24.452Z,95387.00
2023-02-04T15:25:34.005Z,95393.00
2023-02-04T15:29:37.650Z,95379.00
2023-02-04T15:33:52.982Z,95385.00
2023-02-04T15:37:58.048Z,95373.00
2023-02-04T15:42:05.574Z,95405.00
2023-02-04T15:46:09.426Z,95397.00
2023-02-04T15:50:21.382Z,95390.00
2023-02-04T15:54:24.986Z,95415.00
2023-02-04T15:58:32.650Z,95426.00
2023-02-04T16:02:36.588Z,95426.00
2023-02-04T16:06:58.312Z,95435.00
2023-02-04T16:11:02.385Z,95421.00
2023-02-04T16:15:25.390Z,95432.00
2023-02-04T16:19:29.672Z,95401.00
2023-02-04T16:23:34.727Z,95418.00
2023-02-04T16:27:49.600Z,95403.00
2023-02-04T16:31:54.265Z,95418.00
2023-02-04T16:36:01.194Z,95448.00
2023-02-04T16:40:53.208Z,95437.00
2023-02-04T16:44:56.812Z,95435.00
2023-02-04T16:49:06.941Z,95476.00
2023-02-04T16:53:15.086Z,95475.00
2023-02-04T16:57:39.252Z,95463.00
2023-02-04T17:01:42.902Z,95445.00
2023-02-04T17:05:59.266Z,95483.00
2023-02-04T17:10:02.687Z,95471.00
2023-02-04T17:14:24.824Z,95492.00
2023-02-04T17:18:29.954Z,95467.00
2023-02-04T17:22:33.454Z,95496.00
2023-02-04T17:26:39.581Z,95505.00
2023-02-04T17:30:46.345Z,95500.00
2023-02-04T17:35:15.339Z,95498.00
2023-02-04T17:39:18.721Z,95509.00
2023-02-04T17:43:26.731Z,95500.00
2023-02-04T17:47:31.643Z,95504.00
2023-02-04T17:51:36.579Z,95470.00
2023-02-04T17:55:42.945Z,95502.00
2023-02-04T17:59:46.446Z,95496.00
2023-02-04T18:03:53.539Z,95491.00
2023-02-04T18:08:01.510Z,95492.00
2023-02-04T18:12:15.614Z,95477.00
2023-02-04T18:16:25.872Z,95475.00
2023-02-04T18:20:33.937Z,95489.00
2023-02-04T18:24:46.739Z,95477.00
2023-02-04T18:28:52.537Z,95484.00
2023-02-04T18:32:56.438Z,95478.00
2023-02-04T18:37:02.102Z,95463.00
2023-02-04T18:41:27.709Z,95512.00
2023-02-04T18:45:34.104Z,95513.00
2023-02-04T18:49:40.615Z,95513.00
2023-02-04T18:53:46.355Z,95509.00
2023-02-04T18:57:55.429Z,95474.00
2023-02-04T19:02:03.700Z,95507.00
2023-02-04T19:06:25.960Z,95518.00
2023-02-04T19:10:33.989Z,95513.00
2023-02-04T19:14:42.100Z,95503.00
2023-02-04T19:18:45.522Z,95506.00
2023-02-04T19:22:54.172Z,95519.00
2023-02-04T19:27:00.232Z,95498.00
2023-02-04T19:31:07.333Z,95511.00
2023-02-04T19:35:21.618Z,95525.00
2023-02-04T19:39:41.439Z,95506.00
2023-02-04T19:43:49.833Z,95519.00
2023-02-04T19:47:58.219Z,95506.00
2023-02-04T19:52:01.544Z,95527.00
2023-02-04T19:56:30.386Z,95517.00
2023-02-04T20:00:49.948Z,95529.00
2023-02-04T20:04:56.823Z,95531.00
2023-02-04T20:09:18.598Z,95540.00
2023-02-04T20:13:24.792Z,95541.00
2023-02-04T20:17:40.421Z,95548.00
2023-02-04T20:21:56.878Z,95554.00
2023-02-04T20:26:02.731Z,95549.00
2023-02-04T20:30:33.643Z,95538.00
2023-02-04T20:34:40.908Z,95537.00
2023-02-04T20:39:28.263Z,95550.00
2023-02-04T20:43:35.645Z,95522.00
2023-02-04T20:47:39.082Z,95531.00
2023-02-04T20:51:44.147Z,95506.00
2023-02-04T20:56:43.978Z,95524.00
2023-02-04T21:00:52.450Z,95520.00
2023-02-04T21:04:56.209Z,95520.00
2023-02-04T21:09:22.334Z,95530.00
2023-02-04T21:13:26.386Z,95532.00
2023-02-04T21:18:01.788Z,95539.00
2023-02-04T21:22:31.011Z,95548.00
2023-02-04T21:26:51.207Z,95526.00
2023-02-04T21:30:54.543Z,95546.00
2023-02-04T21:34:58.045Z,95558.00
2023-02-04T21:39:01.649Z,95565.00
2023-02-04T21:43:15.729Z,95574.00
2023-02-04T21:47:18.999Z,95574.00
2023-02-04T21:51:22.559Z,95557.00
2023-02-04T21:55:26.181Z,95556.00
2023-02-04T21:59:37.121Z,95586.00
2023-02-04T22:03:40.542Z,95577.00
2023-02-04T22:07:43.881Z,95589.00
2023-02-04T22:12:13.052Z,95579.00
2023-02-04T22:16:34.292Z,95569.00
2023-02-04T22:20:41.464Z,95561.00
2023-02-04T22:24:44.776Z,95564.00
2023-02-04T22:28:50.373Z,95563.00
2023-02-04T22:32:55.928Z,95580.00
2023-02-04T22:37:00.669Z,95580.00
2023-02-04T22:41:03.989Z,95571.00
2023-02-04T22:45:59.716Z,95564.00
2023-02-04T22:50:04.561Z,95568.00
2023-02-04T22:54:07.854Z,95572.00
2023-02-04T22:58:12.417Z,95573.00
2023-02-04T23:02:19.435Z,95562.00
2023-02-04T23:06:51.871Z,95574.00
2023-02-04T23:10:55.295Z,95561.00
2023-02-04T23:15:05.570Z,95553.00
2023-02-04T23:19:09.093Z,95565.00
2023-02-04T23:23:17.785Z,95567.00
2023-02-04T23:27:21.223Z,95575.00
2023-02-04T23:31:24.645Z,95585.00
2023-02-04T23:35:34.140Z,95574.00
2023-02-04T23:39:39.170Z,95585.00
2023-02-04T23:43:42.593Z,95574.00
2023-02-04T23:48:23.177Z,95590.00
2023-02-04T23:52:26.675Z,95579.00
2023-02-04T23:56:31.411Z,95570.00
